createdAt,value
2018-04-24T00:01:59.050Z,99.30
2018-04-24T00:04:26.981Z,99.50
2018-04-24T00:06:54.593Z,99.80
2018-04-24T00:09:22.253Z,99.50
2018-04-24T00:11:49.873Z,99.80
2018-04-24T00:14:20.341Z,99.90
2018-04-24T00:16:47.958Z,99.60
2018-04-24T00:19:15.611Z,99.70
2018-04-24T00:21:44.707Z,99.90
2018-04-24T00:24:12.609Z,99.90
2018-04-24T00:26:41.288Z,99.90
2018-04-24T00:29:08.930Z,99.90
2018-04-24T00:31:36.556Z,99.90
2018-04-24T00:34:06.237Z,99.90
2018-04-24T00:36:33.843Z,99.90
2018-04-24T00:39:01.739Z,99.90
2018-04-24T00:41:29.347Z,99.90
2018-04-24T00:43:57.203Z,99.90
2018-04-24T00:46:24.863Z,99.90
2018-04-24T00:48:52.467Z,99.90
2018-04-24T00:51:20.109Z,99.90
2018-04-24T00:53:47.725Z,99.90
2018-04-24T00:56:15.370Z,99.90
2018-04-24T00:58:42.991Z,99.90
2018-04-24T01:01:10.639Z,99.90
2018-04-24T01:03:38.299Z,99.90
2018-04-24T01:06:07.466Z,99.90
2018-04-24T01:08:35.134Z,99.90
2018-04-24T01:11:02.755Z,99.90
2018-04-24T01:13:30.395Z,99.90
2018-04-24T01:15:58.773Z,99.90
2018-04-24T01:18:27.190Z,99.90
2018-04-24T01:20:54.798Z,99.90
2018-04-24T01:23:22.444Z,99.90
2018-04-24T01:25:50.819Z,99.90
2018-04-24T01:28:18.426Z,99.90
2018-04-24T01:30:46.079Z,99.90
2018-04-24T01:33:13.727Z,99.90
2018-04-24T01:35:42.145Z,99.90
2018-04-24T01:38:10.317Z,99.90
2018-04-24T01:40:38.287Z,99.90
2018-04-24T01:43:05.905Z,99.90
2018-04-24T01:45:33.552Z,99.90
2018-04-24T01:48:01.164Z,99.90
2018-04-24T01:50:28.816Z,99.90
2018-04-24T01:52:56.428Z,99.90
2018-04-24T01:55:24.869Z,99.90
2018-04-24T01:57:52.846Z,99.90
2018-04-24T02:00:20.511Z,99.90
2018-04-24T02:02:48.165Z,99.90
2018-04-24T02:05:15.836Z,99.90
2018-04-24T02:07:43.932Z,99.90
2018-04-24T02:10:12.316Z,99.90
2018-04-24T02:12:40.731Z,99.90
2018-04-24T02:15:08.345Z,99.90
2018-04-24T02:17:36.002Z,99.90
2018-04-24T02:20:03.667Z,99.90
2018-04-24T02:22:32.073Z,99.90
2018-04-24T02:24:59.795Z,99.90
2018-04-24T02:27:27.536Z,99.90
2018-04-24T02:29:55.847Z,99.90
2018-04-24T02:32:23.516Z,99.90
2018-04-24T02:34:51.145Z,99.90
2018-04-24T02:37:18.792Z,99.90
2018-04-24T02:39:46.446Z,99.90
2018-04-24T02:42:14.100Z,99.90
2018-04-24T02:44:41.755Z,99.90
2018-04-24T02:47:09.370Z,99.90
2018-04-24T02:49:37.044Z,99.90
2018-04-24T02:52:04.671Z,99.90
2018-04-24T02:54:33.096Z,99.90
2018-04-24T02:57:00.755Z,99.90
2018-04-24T02:59:28.383Z,99.90
2018-04-24T03:01:56.075Z,99.90
2018-04-24T03:04:23.693Z,99.90
2018-04-24T03:06:51.801Z,99.90
2018-04-24T03:09:19.448Z,99.90
2018-04-24T03:11:47.134Z,99.90
2018-04-24T03:14:15.031Z,99.90
2018-04-24T03:16:42.704Z,99.90
2018-04-24T03:19:10.562Z,99.90
2018-04-24T03:21:38.245Z,99.90
2018-04-24T03:24:05.858Z,99.90
2018-04-24T03:26:33.467Z,99.90
2018-04-24T03:29:01.119Z,99.90
2018-04-24T03:31:28.792Z,99.90
2018-04-24T03:33:57.771Z,99.90
2018-04-24T03:36:26.092Z,99.90
2018-04-24T03:38:53.748Z,99.90
2018-04-24T03:41:21.369Z,99.90
2018-04-24T03:43:54.800Z,99.90
2018-04-24T03:46:22.695Z,99.90
2018-04-24T03:48:50.343Z,99.90
2018-04-24T03:51:17.959Z,99.90
2018-04-24T03:53:46.392Z,99.90
2018-04-24T03:56:14.055Z,99.90
2018-04-24T03:58:41.667Z,99.90
2018-04-24T04:01:09.945Z,99.90
2018-04-24T04:03:38.364Z,99.90
2018-04-24T04:06:06.025Z,99.90
2018-04-24T04:08:33.651Z,99.90
2018-04-24T04:11:01.260Z,99.90
2018-04-24T04:13:28.923Z,99.90
2018-04-24T04:15:56.594Z,99.90
2018-04-24T04:18:35.788Z,99.90
2018-04-24T04:21:15.380Z,99.90
2018-04-24T04:23:55.796Z,99.90
2018-04-24T04:26:23.439Z,99.90
2018-04-24T04:28:54.443Z,99.90
2018-04-24T04:31:22.093Z,99.90
2018-04-24T04:33:50.852Z,99.90
2018-04-24T04:36:19.556Z,99.90
2018-04-24T04:38:48.129Z,99.90
2018-04-24T04:41:15.797Z,99.90
2018-04-24T04:43:43.456Z,99.90
2018-04-24T04:46:12.438Z,99.90
2018-04-24T04:48:41.073Z,99.90
2018-04-24T04:51:09.731Z,99.90
2018-04-24T04:53:39.315Z,99.90
2018-04-24T04:56:07.834Z,99.90
2018-04-24T04:58:35.470Z,99.90
2018-04-24T05:01:03.139Z,99.90
2018-04-24T05:03:30.870Z,99.90
2018-04-24T05:05:58.701Z,99.90
2018-04-24T05:08:27.532Z,99.90
2018-04-24T05:10:55.294Z,99.90
2018-04-24T05:13:24.059Z,99.90
2018-04-24T05:15:51.748Z,99.90
2018-04-24T05:18:19.411Z,99.90
2018-04-24T05:20:47.052Z,99.90
2018-04-24T05:23:14.716Z,99.90
2018-04-24T05:25:42.481Z,99.90
2018-04-24T05:28:10.149Z,99.90
2018-04-24T05:30:37.772Z,99.90
2018-04-24T05:33:05.450Z,99.90
2018-04-24T05:35:33.164Z,99.90
2018-04-24T05:38:00.819Z,99.90
2018-04-24T05:40:28.731Z,99.90
2018-04-24T05:42:56.391Z,99.90
2018-04-24T05:45:24.180Z,99.90
2018-04-24T05:47:52.646Z,99.90
2018-04-24T05:50:20.280Z,99.90
2018-04-24T05:52:47.964Z,99.90
2018-04-24T05:55:15.865Z,99.90
2018-04-24T05:57:44.309Z,99.90
2018-04-24T06:00:11.979Z,99.90
2018-04-24T06:02:39.621Z,99.90
2018-04-24T06:05:07.256Z,99.90
2018-04-24T06:07:34.930Z,99.90
2018-04-24T06:10:02.719Z,99.90
2018-04-24T06:12:30.399Z,99.90
2018-04-24T06:14:58.255Z,99.90
2018-04-24T06:17:25.888Z,99.90
2018-04-24T06:19:53.597Z,99.90
2018-04-24T06:22:21.258Z,99.90
2018-04-24T06:24:49.707Z,99.90
2018-04-24T06:27:17.344Z,99.90
2018-04-24T06:29:45.009Z,99.90
2018-04-24T06:32:12.893Z,99.90
2018-04-24T06:34:40.595Z,99.90
2018-04-24T06:37:08.244Z,99.90
2018-04-24T06:39:36.692Z,99.90
2018-04-24T06:42:04.367Z,99.90
2018-04-24T06:44:32.058Z,99.90
2018-04-24T06:46:59.896Z,99.90
2018-04-24T06:49:27.535Z,99.90
2018-04-24T06:51:55.207Z,99.90
2018-04-24T06:54:23.602Z,99.90
2018-04-24T06:56:52.331Z,99.90
2018-04-24T06:59:19.960Z,99.90
2018-04-24T07:01:47.771Z,99.90
2018-04-24T07:04:16.010Z,99.90
2018-04-24T07:06:44.518Z,99.90
2018-04-24T07:09:12.148Z,99.90
2018-04-24T07:11:39.773Z,99.90
2018-04-24T07:14:08.424Z,99.90
2018-04-24T07:16:36.163Z,99.90
2018-04-24T07:19:03.826Z,99.90
2018-04-24T07:21:31.452Z,99.90
2018-04-24T07:23:59.123Z,99.90
2018-04-24T07:26:26.799Z,99.90
2018-04-24T07:28:55.625Z,99.90
2018-04-24T07:31:23.245Z,99.90
2018-04-24T07:33:50.908Z,99.90
2018-04-24T07:36:18.823Z,99.90
2018-04-24T07:38:46.584Z,99.90
2018-04-24T07:41:16.415Z,99.90
2018-04-24T07:43:44.274Z,99.90
2018-04-24T07:46:12.025Z,99.90
2018-04-24T07:48:39.873Z,99.90
2018-04-24T07:51:08.135Z,99.90
2018-04-24T07:53:36.479Z,99.90
2018-04-24T07:56:04.312Z,99.90
2018-04-24T07:58:31.976Z,99.90
2018-04-24T08:00:59.636Z,99.90
2018-04-24T08:03:27.304Z,99.90
2018-04-24T08:05:54.979Z,99.90
2018-04-24T08:08:22.640Z,99.90
2018-04-24T08:10:50.272Z,99.90
2018-04-24T08:13:17.947Z,99.90
2018-04-24T08:15:45.602Z,99.90
2018-04-24T08:18:13.594Z,99.90
2018-04-24T08:20:42.039Z,99.90
2018-04-24T08:23:10.431Z,99.90
2018-04-24T08:25:39.404Z,99.90
2018-04-24T08:28:07.077Z,99.90
2018-04-24T08:30:34.752Z,99.90
2018-04-24T08:33:02.387Z,99.90
2018-04-24T08:35:30.008Z,99.90
2018-04-24T08:37:57.757Z,99.90
2018-04-24T08:40:25.394Z,99.90
2018-04-24T08:42:53.053Z,99.90
2018-04-24T08:45:21.658Z,99.90
2018-04-24T08:47:49.352Z,99.90
2018-04-24T08:50:16.971Z,99.90
2018-04-24T08:52:45.505Z,99.90
2018-04-24T08:55:13.148Z,99.90
2018-04-24T08:57:40.819Z,99.90
2018-04-24T09:00:08.443Z,99.90
2018-04-24T09:02:36.108Z,99.90
2018-04-24T09:05:03.761Z,99.90
2018-04-24T09:07:31.992Z,99.90
2018-04-24T09:10:00.348Z,99.90
2018-04-24T09:12:28.335Z,99.90
2018-04-24T09:14:56.000Z,99.90
2018-04-24T09:17:23.659Z,99.90
2018-04-24T09:19:51.327Z,99.90
2018-04-24T09:22:18.956Z,99.90
2018-04-24T09:24:46.622Z,99.90
2018-04-24T09:27:14.313Z,99.90
2018-04-24T09:29:42.756Z,99.90
2018-04-24T09:32:10.468Z,99.90
2018-04-24T09:34:38.884Z,99.90
2018-04-24T09:37:06.554Z,99.90
2018-04-24T09:39:34.175Z,99.90
2018-04-24T09:42:01.835Z,99.90
2018-04-24T09:44:29.545Z,99.90
2018-04-24T09:46:57.198Z,99.90
2018-04-24T09:49:24.910Z,99.90
2018-04-24T09:51:52.535Z,99.90
2018-04-24T09:54:20.219Z,99.90
2018-04-24T09:56:47.908Z,99.90
2018-04-24T09:59:15.828Z,99.90
2018-04-24T10:01:43.499Z,99.90
2018-04-24T10:04:11.167Z,99.90
2018-04-24T10:06:38.892Z,99.90
2018-04-24T10:09:06.581Z,99.90
2018-04-24T10:11:34.557Z,99.90
2018-04-24T10:14:02.217Z,99.90
2018-04-24T10:16:29.876Z,99.90
2018-04-24T10:18:57.552Z,99.90
2018-04-24T10:21:25.224Z,99.90
2018-04-24T10:23:52.905Z,99.90
2018-04-24T10:26:20.527Z,99.90
2018-04-24T10:28:48.148Z,99.90
2018-04-24T10:31:16.125Z,99.90
2018-04-24T10:33:43.747Z,99.90
2018-04-24T10:36:11.404Z,99.90
2018-04-24T10:38:39.023Z,99.90
2018-04-24T10:41:07.451Z,99.90
2018-04-24T10:43:35.108Z,99.90
2018-04-24T10:46:02.731Z,99.90
2018-04-24T10:48:31.172Z,99.90
2018-04-24T10:50:58.798Z,99.90
2018-04-24T10:53:26.459Z,99.90
2018-04-24T10:55:54.400Z,99.90
2018-04-24T10:58:22.829Z,99.90
2018-04-24T11:00:50.449Z,99.90
2018-04-24T11:03:18.109Z,99.90
2018-04-24T11:05:45.726Z,99.90
2018-04-24T11:08:13.387Z,99.90
2018-04-24T11:10:41.019Z,99.90
2018-04-24T11:13:08.699Z,99.90
2018-04-24T11:15:36.425Z,99.90
2018-04-24T11:18:04.768Z,99.90
2018-04-24T11:20:32.433Z,99.90
2018-04-24T11:23:00.064Z,99.90
2018-04-24T11:25:27.830Z,99.90
2018-04-24T11:27:55.448Z,99.90
2018-04-24T11:30:23.786Z,99.90
2018-04-24T11:32:51.419Z,99.90
2018-04-24T11:35:19.075Z,99.90
2018-04-24T11:37:47.185Z,99.90
2018-04-24T11:40:15.147Z,99.90
2018-04-24T11:42:42.777Z,99.90
2018-04-24T11:45:10.496Z,99.90
2018-04-24T11:47:38.189Z,99.90
2018-04-24T11:50:05.819Z,99.90
2018-04-24T11:52:33.843Z,99.90
2018-04-24T11:55:02.100Z,99.90
2018-04-24T11:57:29.722Z,99.90
2018-04-24T11:59:57.409Z,99.90
2018-04-24T12:02:25.662Z,99.90
2018-04-24T12:04:53.317Z,99.90
2018-04-24T12:07:20.997Z,99.90
2018-04-24T12:09:48.623Z,99.90
2018-04-24T12:12:16.288Z,99.90
2018-04-24T12:14:43.939Z,99.90
2018-04-24T12:17:11.589Z,99.90
2018-04-24T12:19:39.534Z,99.90
2018-04-24T12:22:07.759Z,99.90
2018-04-24T12:24:35.379Z,99.90
2018-04-24T12:27:03.041Z,99.90
2018-04-24T12:29:32.175Z,99.90
2018-04-24T12:31:59.879Z,99.90
2018-04-24T12:34:27.509Z,99.90
2018-04-24T12:36:55.138Z,99.90
2018-04-24T12:39:23.597Z,99.90
2018-04-24T12:41:51.531Z,99.90
2018-04-24T12:44:19.152Z,99.90
2018-04-24T12:46:46.807Z,99.90
2018-04-24T12:49:15.233Z,99.90
2018-04-24T12:51:42.940Z,99.90
2018-04-24T12:54:11.357Z,99.90
2018-04-24T12:56:38.978Z,99.90
2018-04-24T12:59:06.761Z,99.90
2018-04-24T13:01:34.388Z,99.90
2018-04-24T13:04:03.547Z,99.90
2018-04-24T13:06:31.210Z,99.90
2018-04-24T13:08:58.868Z,99.90
2018-04-24T13:11:26.632Z,99.70
2018-04-24T13:13:54.256Z,99.10
2018-04-24T13:16:21.872Z,97.70
2018-04-24T13:18:49.545Z,97.60
2018-04-24T13:21:17.171Z,98.10
2018-04-24T13:23:44.847Z,98.40
2018-04-24T13:26:12.503Z,98.10
2018-04-24T13:28:40.180Z,98.00
2018-04-24T13:31:07.798Z,96.30
2018-04-24T13:33:35.468Z,96.10
2018-04-24T13:36:03.107Z,96.50
2018-04-24T13:38:30.730Z,97.40
2018-04-24T13:40:58.388Z,98.00
2018-04-24T13:43:26.013Z,97.60
2018-04-24T13:45:53.692Z,96.10
2018-04-24T13:48:22.234Z,96.20
2018-04-24T13:50:50.142Z,96.40
2018-04-24T13:53:17.808Z,94.70
2018-04-24T13:55:45.437Z,95.10
2018-04-24T13:58:14.257Z,95.80
2018-04-24T14:00:42.190Z,95.60
2018-04-24T14:03:09.799Z,96.20
2018-04-24T14:05:37.455Z,96.60
2018-04-24T14:08:05.077Z,96.40
2018-04-24T14:10:32.731Z,95.80
2018-04-24T14:13:00.359Z,95.60
2018-04-24T14:15:28.672Z,94.20
2018-04-24T14:17:56.283Z,95.60
2018-04-24T14:20:23.945Z,95.60
2018-04-24T14:22:52.370Z,96.10
2018-04-24T14:25:20.775Z,96.20
2018-04-24T14:27:48.448Z,95.20
2018-04-24T14:30:16.842Z,96.40
2018-04-24T14:32:44.512Z,96.40
2018-04-24T14:35:12.719Z,95.50
2018-04-24T14:37:40.480Z,95.90
2018-04-24T14:40:08.146Z,96.40
2018-04-24T14:42:35.801Z,95.40
2018-04-24T14:45:03.522Z,96.40
2018-04-24T14:47:31.369Z,96.50
2018-04-24T14:49:59.736Z,96.70
2018-04-24T14:52:27.392Z,96.30
2018-04-24T14:54:55.062Z,96.10
2018-04-24T14:57:22.716Z,96.90
2018-04-24T14:59:50.572Z,97.40
2018-04-24T15:02:18.231Z,97.20
2018-04-24T15:04:46.580Z,98.60
2018-04-24T15:07:14.295Z,98.20
2018-04-24T15:09:41.896Z,99.10
2018-04-24T15:12:09.571Z,97.50
2018-04-24T15:14:37.244Z,97.70
2018-04-24T15:17:05.101Z,97.10
2018-04-24T15:19:32.757Z,96.50
2018-04-24T15:22:00.381Z,97.40
2018-04-24T15:24:28.032Z,97.90
2018-04-24T15:26:55.723Z,97.50
2018-04-24T15:29:24.044Z,97.40
2018-04-24T15:31:51.877Z,97.40
2018-04-24T15:34:19.543Z,98.30
2018-04-24T15:36:47.160Z,98.80
2018-04-24T15:39:15.471Z,98.60
2018-04-24T15:41:43.085Z,98.80
2018-04-24T15:44:10.748Z,98.40
2018-04-24T15:46:38.397Z,97.70
2018-04-24T15:49:06.830Z,97.90
2018-04-24T15:51:34.443Z,97.80
2018-04-24T15:54:02.051Z,94.90
2018-04-24T15:56:29.736Z,94.90
2018-04-24T15:58:57.489Z,92.20
2018-04-24T16:01:25.342Z,91.90
2018-04-24T16:03:53.000Z,92.90
2018-04-24T16:06:20.647Z,92.50
2018-04-24T16:08:48.296Z,93.10
2018-04-24T16:11:16.963Z,92.50
2018-04-24T16:13:45.704Z,92.10
2018-04-24T16:16:14.280Z,91.80
2018-04-24T16:18:42.100Z,91.60
2018-04-24T16:21:09.867Z,92.00
2018-04-24T16:23:37.575Z,91.90
2018-04-24T16:26:07.791Z,92.00
2018-04-24T16:28:36.495Z,91.70
2018-04-24T16:31:04.345Z,91.50
2018-04-24T16:33:32.673Z,91.80
2018-04-24T16:36:00.685Z,91.50
2018-04-24T16:38:28.306Z,92.20
2018-04-24T16:40:56.920Z,90.80
2018-04-24T16:43:24.599Z,90.70
2018-04-24T16:45:52.831Z,91.30
2018-04-24T16:48:20.491Z,91.10
2018-04-24T16:50:48.099Z,91.00
2018-04-24T16:53:15.762Z,91.40
2018-04-24T16:55:43.411Z,90.80
2018-04-24T16:58:11.063Z,91.70
2018-04-24T17:00:38.815Z,91.90
2018-04-24T17:03:07.136Z,92.40
2018-04-24T17:05:35.070Z,91.70
2018-04-24T17:08:02.683Z,92.10
2018-04-24T17:10:30.295Z,92.90
2018-04-24T17:12:58.046Z,92.30
2018-04-24T17:15:27.041Z,92.60
2018-04-24T17:17:55.232Z,93.00
2018-04-24T17:20:22.898Z,92.10
2018-04-24T17:22:50.507Z,92.80
2018-04-24T17:25:18.189Z,91.40
2018-04-24T17:27:45.848Z,91.60
2018-04-24T17:30:13.516Z,88.90
2018-04-24T17:32:41.749Z,90.00
2018-04-24T17:35:09.463Z,88.60
2018-04-24T17:37:37.112Z,89.40
2018-04-24T17:40:04.784Z,88.00
2018-04-24T17:42:32.406Z,90.10
2018-04-24T17:45:00.057Z,89.40
2018-04-24T17:47:27.679Z,89.00
2018-04-24T17:49:56.104Z,90.00
2018-04-24T17:52:23.878Z,90.00
2018-04-24T17:54:51.570Z,89.10
2018-04-24T17:57:19.183Z,89.10
2018-04-24T17:59:46.836Z,90.00
2018-04-24T18:02:14.487Z,90.40
2018-04-24T18:04:42.111Z,90.20
2018-04-24T18:07:10.139Z,90.30
2018-04-24T18:09:37.760Z,91.70
2018-04-24T18:12:05.370Z,91.80
2018-04-24T18:14:33.035Z,92.30
2018-04-24T18:17:00.651Z,92.10
2018-04-24T18:19:28.304Z,92.60
2018-04-24T18:21:57.410Z,94.50
2018-04-24T18:24:25.027Z,94.10
2018-04-24T18:26:52.677Z,93.60
2018-04-24T18:29:20.295Z,93.60
2018-04-24T18:31:47.941Z,94.00
2018-04-24T18:34:15.555Z,93.70
2018-04-24T18:36:43.205Z,93.20
2018-04-24T18:39:10.871Z,93.00
2018-04-24T18:41:38.516Z,93.40
2018-04-24T18:44:06.129Z,93.00
2018-04-24T18:46:33.783Z,92.50
2018-04-24T18:49:02.206Z,92.60
2018-04-24T18:51:29.853Z,92.00
2018-04-24T18:53:57.503Z,93.80
2018-04-24T18:56:25.117Z,93.50
2018-04-24T18:58:52.772Z,93.50
2018-04-24T19:01:20.530Z,92.90
2018-04-24T19:03:48.195Z,92.70
2018-04-24T19:06:15.844Z,92.60
2018-04-24T19:08:43.455Z,93.10
2018-04-24T19:11:11.128Z,92.10
2018-04-24T19:13:38.747Z,92.70
2018-04-24T19:16:06.400Z,92.30
2018-04-24T19:21:36.515Z,93.80
2018-04-24T19:24:04.235Z,93.30
2018-04-24T19:26:32.610Z,94.10
2018-04-24T19:29:00.990Z,95.20
2018-04-24T19:44:54.312Z,99.90
2018-04-24T19:47:23.060Z,99.90
2018-04-24T19:49:56.280Z,99.90
2018-04-24T19:52:23.923Z,99.90
2018-04-24T19:54:58.141Z,99.90
2018-04-24T19:57:26.538Z,99.90
2018-04-24T19:59:54.207Z,99.90
2018-04-24T20:02:25.323Z,99.90
2018-04-24T20:04:54.097Z,99.90
2018-04-24T20:07:22.582Z,99.90
2018-04-24T20:09:50.231Z,99.90
2018-04-24T20:12:17.847Z,99.90
2018-04-24T20:14:47.895Z,99.90
2018-04-24T20:17:19.406Z,99.90
2018-04-24T20:19:47.080Z,99.90
2018-04-24T20:22:14.695Z,99.90
2018-04-24T20:24:43.466Z,99.90
2018-04-24T20:27:11.079Z,99.90
2018-04-24T20:29:40.413Z,99.90
2018-04-24T20:32:08.093Z,99.90
2018-04-24T20:34:35.720Z,99.90
2018-04-24T20:37:03.724Z,99.90
2018-04-24T20:39:31.335Z,99.90
2018-04-24T20:41:59.184Z,99.90
2018-04-24T20:44:28.007Z,99.90
2018-04-24T20:46:55.611Z,99.90
2018-04-24T20:49:23.234Z,99.90
2018-04-24T20:51:51.201Z,99.90
2018-04-24T20:54:18.814Z,99.90
2018-04-24T20:56:47.223Z,99.90
2018-04-24T20:59:14.920Z,99.90
2018-04-24T21:01:42.766Z,99.90
2018-04-24T21:04:10.376Z,99.90
2018-04-24T21:06:38.116Z,99.90
2018-04-24T21:09:07.340Z,99.90
2018-04-24T21:11:34.992Z,99.90
2018-04-24T21:14:04.003Z,99.90
2018-04-24T21:16:31.714Z,99.90
2018-04-24T21:18:59.390Z,99.90
2018-04-24T21:21:27.047Z,99.90
2018-04-24T21:23:55.518Z,99.90
2018-04-24T21:26:23.172Z,99.90
2018-04-24T21:28:51.152Z,99.90
2018-04-24T21:31:18.760Z,99.90
2018-04-24T21:33:46.417Z,99.90
2018-04-24T21:36:14.431Z,99.90
2018-04-24T21:38:42.800Z,99.90
2018-04-24T21:41:10.488Z,99.90
2018-04-24T21:43:39.886Z,99.90
2018-04-24T21:46:08.379Z,99.90
2018-04-24T21:48:36.132Z,99.90
2018-04-24T21:51:04.544Z,99.90
2018-04-24T21:53:32.455Z,99.90
2018-04-24T21:56:00.311Z,99.90
2018-04-24T21:58:29.026Z,99.90
2018-04-24T22:00:56.672Z,99.90
2018-04-24T22:03:25.662Z,99.90
2018-04-24T22:05:53.332Z,99.90
2018-04-24T22:08:20.949Z,99.90
2018-04-24T22:10:48.603Z,99.90
2018-04-24T22:13:17.185Z,99.90
2018-04-24T22:15:45.488Z,99.90
2018-04-24T22:18:14.585Z,99.90
2018-04-24T22:20:42.200Z,99.90
2018-04-24T22:23:10.058Z,99.90
2018-04-24T22:25:37.675Z,99.90
2018-04-24T22:28:05.335Z,99.90
2018-04-24T22:30:33.527Z,99.90
2018-04-24T22:33:01.986Z,99.90
2018-04-24T22:35:29.596Z,99.90
2018-04-24T22:37:57.893Z,99.90
2018-04-24T22:40:25.613Z,99.90
2018-04-24T22:42:54.002Z,99.90
2018-04-24T22:45:21.651Z,99.90
2018-04-24T22:47:50.032Z,99.90
2018-04-24T22:50:18.454Z,99.90
2018-04-24T22:52:46.063Z,99.90
2018-04-24T22:55:13.714Z,99.90
2018-04-24T22:57:41.372Z,99.90
2018-04-24T23:00:09.396Z,99.90
2018-04-24T23:02:37.018Z,99.90
2018-04-24T23:05:05.024Z,99.90
2018-04-24T23:07:32.641Z,99.90
2018-04-24T23:09:59.759Z,99.90
2018-04-24T23:12:39.232Z,99.90
2018-04-24T23:15:18.648Z,99.90
2018-04-24T23:17:57.983Z,99.90
2018-04-24T23:20:25.187Z,99.90
2018-04-24T23:22:52.839Z,99.90
2018-04-24T23:25:20.487Z,99.90
2018-04-24T23:27:48.315Z,99.90
2018-04-24T23:30:15.973Z,99.90
2018-04-24T23:32:45.088Z,99.90
2018-04-24T23:35:13.504Z,99.90
2018-04-24T23:37:41.132Z,99.90
2018-04-24T23:40:08.795Z,99.90
2018-04-24T23:42:36.415Z,99.90
2018-04-24T23:45:04.089Z,99.90
2018-04-24T23:47:31.703Z,99.90
2018-04-24T23:49:59.352Z,99.90
2018-04-24T23:52:26.977Z,99.90
2018-04-24T23:54:54.620Z,99.90
2018-04-24T23:57:22.847Z,99.90
2018-04-24T23:59:50.508Z,99.90
